sensor_id;sensor_type;location;lat;lon;timestamp;P1;durP1;ratioP1;P2;durP2;ratioP2
8450;SDS011;4262;50.980;13.892;2023-01-10T04:32:23;13.20;;;6.50;;
8450;SDS011;4262;50.980;13.892;2023-01-10T04:34:49;9.70;;;5.10;;
8450;SDS011;4262;50.980;13.892;2023-01-10T04:37:17;15.17;;;7.13;;
8450;SDS011;4262;50.980;13.892;2023-01-10T04:39:44;11.23;;;5.20;;
8450;SDS011;4262;50.980;13.892;2023-01-10T04:42:12;12.70;;;5.70;;
8450;SDS011;4262;50.980;13.892;2023-01-10T04:44:39;13.73;;;6.13;;
8450;SDS011;4262;50.980;13.892;2023-01-10T04:47:06;9.63;;;5.53;;
8450;SDS011;4262;50.980;13.892;2023-01-10T04:49:34;16.17;;;5.97;;
8450;SDS011;4262;50.980;13.892;2023-01-10T04:52:01;12.90;;;5.77;;
8450;SDS011;4262;50.980;13.892;2023-01-10T04:54:27;13.40;;;5.70;;
8450;SDS011;4262;50.980;13.892;2023-01-10T04:56:54;14.37;;;6.00;;
8450;SDS011;4262;50.980;13.892;2023-01-10T04:59:21;15.60;;;6.57;;
8450;SDS011;4262;50.980;13.892;2023-01-10T05:01:48;12.77;;;6.13;;
8450;SDS011;4262;50.980;13.892;2023-01-10T05:04:15;14.13;;;6.80;;
8450;SDS011;4262;50.980;13.892;2023-01-10T05:06:42;13.57;;;5.73;;
8450;SDS011;4262;50.980;13.892;2023-01-10T05:09:09;15.63;;;6.30;;
8450;SDS011;4262;50.980;13.892;2023-01-10T05:11:36;13.30;;;6.10;;
8450;SDS011;4262;50.980;13.892;2023-01-10T05:14:03;13.17;;;7.23;;
8450;SDS011;4262;50.980;13.892;2023-01-10T05:16:29;17.70;;;7.53;;
8450;SDS011;4262;50.980;13.892;2023-01-10T05:18:56;15.67;;;6.00;;
8450;SDS011;4262;50.980;13.892;2023-01-10T05:21:23;12.57;;;6.03;;
8450;SDS011;4262;50.980;13.892;2023-01-10T05:23:51;13.93;;;5.90;;
8450;SDS011;4262;50.980;13.892;2023-01-10T05:26:20;10.97;;;5.80;;
8450;SDS011;4262;50.980;13.892;2023-01-10T05:28:48;14.63;;;6.90;;
8450;SDS011;4262;50.980;13.892;2023-01-10T05:31:16;12.57;;;6.50;;
8450;SDS011;4262;50.980;13.892;2023-01-10T05:33:44;15.90;;;6.53;;
8450;SDS011;4262;50.980;13.892;2023-01-10T05:36:12;15.13;;;6.50;;
8450;SDS011;4262;50.980;13.892;2023-01-10T05:38:39;10.67;;;6.00;;
8450;SDS011;4262;50.980;13.892;2023-01-10T05:41:07;12.63;;;6.30;;
8450;SDS011;4262;50.980;13.892;2023-01-10T05:43:34;15.60;;;7.10;;
8450;SDS011;4262;50.980;13.892;2023-01-10T05:46:01;13.20;;;7.23;;
8450;SDS011;4262;50.980;13.892;2023-01-10T05:48:27;14.53;;;7.50;;
8450;SDS011;4262;50.980;13.892;2023-01-10T05:50:54;17.60;;;6.80;;
8450;SDS011;4262;50.980;13.892;2023-01-10T05:53:22;12.70;;;6.13;;
8450;SDS011;4262;50.980;13.892;2023-01-10T05:55:52;11.67;;;6.33;;
8450;SDS011;4262;50.980;13.892;2023-01-10T05:58:21;11.47;;;6.43;;
8450;SDS011;4262;50.980;13.892;2023-01-10T06:00:48;11.77;;;6.17;;
8450;SDS011;4262;50.980;13.892;2023-01-10T06:03:15;12.20;;;5.70;;
8450;SDS011;4262;50.980;13.892;2023-01-10T06:05:44;12.93;;;6.60;;
8450;SDS011;4262;50.980;13.892;2023-01-10T06:08:11;14.37;;;6.80;;
8450;SDS011;4262;50.980;13.892;2023-01-10T06:10:39;14.97;;;6.70;;
8450;SDS011;4262;50.980;13.892;2023-01-10T06:13:06;16.57;;;6.60;;
8450;SDS011;4262;50.980;13.892;2023-01-10T06:15:36;12.47;;;7.13;;
8450;SDS011;4262;50.980;13.892;2023-01-10T06:18:03;16.33;;;7.53;;
8450;SDS011;4262;50.980;13.892;2023-01-10T06:20:30;14.47;;;6.93;;
8450;SDS011;4262;50.980;13.892;2023-01-10T06:22:57;13.20;;;6.57;;
8450;SDS011;4262;50.980;13.892;2023-01-10T06:25:27;10.33;;;6.10;;
8450;SDS011;4262;50.980;13.892;2023-01-10T06:27:54;12.53;;;6.13;;
8450;SDS011;4262;50.980;13.892;2023-01-10T06:30:21;13.33;;;6.97;;
8450;SDS011;4262;50.980;13.892;2023-01-10T06:32:49;13.40;;;6.30;;
8450;SDS011;4262;50.980;13.892;2023-01-10T06:35:16;12.07;;;6.70;;
8450;SDS011;4262;50.980;13.892;2023-01-10T06:37:43;16.00;;;6.80;;
8450;SDS011;4262;50.980;13.892;2023-01-10T06:40:11;14.30;;;6.47;;
8450;SDS011;4262;50.980;13.892;2023-01-10T06:42:38;13.83;;;7.13;;
8450;SDS011;4262;50.980;13.892;2023-01-10T06:45:06;19.03;;;6.90;;
8450;SDS011;4262;50.980;13.892;2023-01-10T06:47:33;13.23;;;7.50;;
8450;SDS011;4262;50.980;13.892;2023-01-10T06:50:01;15.87;;;7.73;;
8450;SDS011;4262;50.980;13.892;2023-01-10T06:52:28;14.80;;;6.63;;
8450;SDS011;4262;50.980;13.892;2023-01-10T06:54:54;14.20;;;6.30;;
8450;SDS011;4262;50.980;13.892;2023-01-10T06:57:21;10.73;;;7.73;;
8450;SDS011;4262;50.980;13.892;2023-01-10T06:59:48;14.13;;;6.60;;
8450;SDS011;4262;50.980;13.892;2023-01-10T07:02:14;16.10;;;7.03;;
8450;SDS011;4262;50.980;13.892;2023-01-10T07:04:41;13.23;;;7.10;;
8450;SDS011;4262;50.980;13.892;2023-01-10T07:07:10;15.10;;;7.93;;
8450;SDS011;4262;50.980;13.892;2023-01-10T07:09:36;12.60;;;7.67;;
8450;SDS011;4262;50.980;13.892;2023-01-10T07:12:03;12.27;;;6.60;;
8450;SDS011;4262;50.980;13.892;2023-01-10T07:14:30;13.23;;;7.77;;
8450;SDS011;4262;50.980;13.892;2023-01-10T07:16:57;22.80;;;8.57;;
8450;SDS011;4262;50.980;13.892;2023-01-10T07:19:24;20.97;;;7.57;;
8450;SDS011;4262;50.980;13.892;2023-01-10T07:21:51;16.30;;;8.27;;
8450;SDS011;4262;50.980;13.892;2023-01-10T07:24:19;15.33;;;6.90;;
8450;SDS011;4262;50.980;13.892;2023-01-10T07:26:47;11.30;;;6.80;;
8450;SDS011;4262;50.980;13.892;2023-01-10T07:29:13;12.13;;;6.70;;
8450;SDS011;4262;50.980;13.892;2023-01-10T07:31:40;13.73;;;6.13;;
8450;SDS011;4262;50.980;13.892;2023-01-10T07:34:07;12.43;;;6.70;;
8450;SDS011;4262;50.980;13.892;2023-01-10T07:36:34;14.60;;;6.93;;
8450;SDS011;4262;50.980;13.892;2023-01-10T07:39:01;13.63;;;7.47;;
8450;SDS011;4262;50.980;13.892;2023-01-10T07:41:30;11.60;;;6.80;;
8450;SDS011;4262;50.980;13.892;2023-01-10T07:43:57;16.57;;;7.57;;
8450;SDS011;4262;50.980;13.892;2023-01-10T07:46:25;13.53;;;7.13;;
8450;SDS011;4262;50.980;13.892;2023-01-10T07:48:52;14.30;;;6.60;;
8450;SDS011;4262;50.980;13.892;2023-01-10T07:51:18;15.40;;;7.70;;
8450;SDS011;4262;50.980;13.892;2023-01-10T07:53:45;11.47;;;6.77;;
8450;SDS011;4262;50.980;13.892;2023-01-10T07:56:12;15.90;;;7.20;;
8450;SDS011;4262;50.980;13.892;2023-01-10T07:58:40;15.20;;;7.23;;
8450;SDS011;4262;50.980;13.892;2023-01-10T08:01:07;14.47;;;7.60;;
8450;SDS011;4262;50.980;13.892;2023-01-10T08:03:33;16.27;;;7.33;;
8450;SDS011;4262;50.980;13.892;2023-01-10T08:06:03;20.67;;;7.80;;
8450;SDS011;4262;50.980;13.892;2023-01-10T08:08:31;18.63;;;8.40;;
8450;SDS011;4262;50.980;13.892;2023-01-10T08:10:58;12.63;;;7.23;;
8450;SDS011;4262;50.980;13.892;2023-01-10T08:13:27;12.40;;;6.87;;
8450;SDS011;4262;50.980;13.892;2023-01-10T08:15:55;12.13;;;7.23;;
8450;SDS011;4262;50.980;13.892;2023-01-10T08:18:23;18.43;;;8.00;;
8450;SDS011;4262;50.980;13.892;2023-01-10T08:20:51;19.97;;;8.60;;
8450;SDS011;4262;50.980;13.892;2023-01-10T08:23:19;12.50;;;7.57;;
8450;SDS011;4262;50.980;13.892;2023-01-10T08:25:47;14.77;;;7.20;;
8450;SDS011;4262;50.980;13.892;2023-01-10T08:28:17;15.40;;;7.50;;
8450;SDS011;4262;50.980;13.892;2023-01-10T08:30:44;23.07;;;9.10;;
8450;SDS011;4262;50.980;13.892;2023-01-10T08:33:12;15.33;;;7.20;;
8450;SDS011;4262;50.980;13.892;2023-01-10T08:35:39;12.50;;;8.20;;
8450;SDS011;4262;50.980;13.892;2023-01-10T08:38:07;18.63;;;7.47;;
8450;SDS011;4262;50.980;13.892;2023-01-10T08:40:35;16.00;;;7.93;;
8450;SDS011;4262;50.980;13.892;2023-01-10T08:43:03;15.90;;;7.20;;
8450;SDS011;4262;50.980;13.892;2023-01-10T08:45:32;10.07;;;6.00;;
8450;SDS011;4262;50.980;13.892;2023-01-10T08:48:00;13.57;;;6.87;;
8450;SDS011;4262;50.980;13.892;2023-01-10T08:50:29;14.00;;;6.70;;
8450;SDS011;4262;50.980;13.892;2023-01-10T08:52:56;19.10;;;7.07;;
8450;SDS011;4262;50.980;13.892;2023-01-10T08:55:25;13.10;;;5.57;;
8450;SDS011;4262;50.980;13.892;2023-01-10T08:57:54;13.17;;;5.93;;
8450;SDS011;4262;50.980;13.892;2023-01-10T09:00:24;13.07;;;5.87;;
8450;SDS011;4262;50.980;13.892;2023-01-10T09:02:50;11.57;;;6.27;;
8450;SDS011;4262;50.980;13.892;2023-01-10T09:05:17;12.20;;;5.40;;
8450;SDS011;4262;50.980;13.892;2023-01-10T09:07:45;14.70;;;6.80;;
8450;SDS011;4262;50.980;13.892;2023-01-10T09:10:12;16.33;;;8.03;;
8450;SDS011;4262;50.980;13.892;2023-01-10T09:12:39;13.77;;;6.40;;
8450;SDS011;4262;50.980;13.892;2023-01-10T09:15:21;12.07;;;6.00;;
8450;SDS011;4262;50.980;13.892;2023-01-10T09:17:51;11.77;;;6.40;;
8450;SDS011;4262;50.980;13.892;2023-01-10T09:20:18;16.23;;;6.00;;
8450;SDS011;4262;50.980;13.892;2023-01-10T09:22:47;14.33;;;5.80;;
8450;SDS011;4262;50.980;13.892;2023-01-10T09:25:16;15.17;;;7.53;;
8450;SDS011;4262;50.980;13.892;2023-01-10T09:27:42;13.30;;;5.97;;
8450;SDS011;4262;50.980;13.892;2023-01-10T09:30:11;12.17;;;5.60;;
8450;SDS011;4262;50.980;13.892;2023-01-10T09:32:38;11.00;;;5.97;;
8450;SDS011;4262;50.980;13.892;2023-01-10T09:35:05;9.93;;;5.30;;
8450;SDS011;4262;50.980;13.892;2023-01-10T09:37:33;11.00;;;4.90;;
8450;SDS011;4262;50.980;13.892;2023-01-10T09:40:06;10.40;;;5.43;;
8450;SDS011;4262;50.980;13.892;2023-01-10T09:42:42;9.57;;;4.20;;
8450;SDS011;4262;50.980;13.892;2023-01-10T09:45:24;12.10;;;4.70;;
8450;SDS011;4262;50.980;13.892;2023-01-10T09:48:02;9.00;;;4.23;;
8450;SDS011;4262;50.980;13.892;2023-01-10T09:50:34;9.00;;;4.27;;
8450;SDS011;4262;50.980;13.892;2023-01-10T09:53:10;9.17;;;3.90;;
8450;SDS011;4262;50.980;13.892;2023-01-10T09:55:41;9.03;;;3.30;;
8450;SDS011;4262;50.980;13.892;2023-01-10T09:58:13;13.47;;;3.93;;
8450;SDS011;4262;50.980;13.892;2023-01-10T10:00:43;12.00;;;5.03;;
8450;SDS011;4262;50.980;13.892;2023-01-10T10:03:19;21.53;;;5.70;;
8450;SDS011;4262;50.980;13.892;2023-01-10T10:05:51;6.60;;;3.47;;
8450;SDS011;4262;50.980;13.892;2023-01-10T10:08:18;9.23;;;4.33;;
8450;SDS011;4262;50.980;13.892;2023-01-10T10:10:53;8.43;;;3.80;;
8450;SDS011;4262;50.980;13.892;2023-01-10T10:13:30;7.30;;;2.80;;
8450;SDS011;4262;50.980;13.892;2023-01-10T10:16:12;9.83;;;4.10;;
8450;SDS011;4262;50.980;13.892;2023-01-10T10:18:49;9.00;;;4.80;;
8450;SDS011;4262;50.980;13.892;2023-01-10T10:21:27;10.30;;;4.20;;
8450;SDS011;4262;50.980;13.892;2023-01-10T10:24:05;10.77;;;4.47;;
8450;SDS011;4262;50.980;13.892;2023-01-10T10:26:46;9.00;;;3.97;;
8450;SDS011;4262;50.980;13.892;2023-01-10T10:29:33;9.07;;;4.57;;
8450;SDS011;4262;50.980;13.892;2023-01-10T10:32:20;9.63;;;4.87;;
8450;SDS011;4262;50.980;13.892;2023-01-10T10:34:55;11.70;;;4.70;;
8450;SDS011;4262;50.980;13.892;2023-01-10T10:37:27;13.10;;;4.87;;
8450;SDS011;4262;50.980;13.892;2023-01-10T10:40:20;11.10;;;4.70;;
8450;SDS011;4262;50.980;13.892;2023-01-10T10:42:52;11.40;;;5.50;;
8450;SDS011;4262;50.980;13.892;2023-01-10T10:45:22;12.63;;;5.00;;
8450;SDS011;4262;50.980;13.892;2023-01-10T10:47:56;9.70;;;5.10;;
8450;SDS011;4262;50.980;13.892;2023-01-10T10:50:30;10.30;;;5.00;;
8450;SDS011;4262;50.980;13.892;2023-01-10T10:52:59;17.97;;;5.93;;
8450;SDS011;4262;50.980;13.892;2023-01-10T10:55:29;10.93;;;4.90;;
8450;SDS011;4262;50.980;13.892;2023-01-10T10:58:01;9.60;;;4.20;;
8450;SDS011;4262;50.980;13.892;2023-01-10T11:00:30;11.40;;;4.63;;
8450;SDS011;4262;50.980;13.892;2023-01-10T11:02:57;11.53;;;4.90;;
8450;SDS011;4262;50.980;13.892;2023-01-10T11:05:31;11.50;;;4.17;;
8450;SDS011;4262;50.980;13.892;2023-01-10T11:08:03;10.80;;;4.37;;
8450;SDS011;4262;50.980;13.892;2023-01-10T11:10:35;14.07;;;3.83;;
8450;SDS011;4262;50.980;13.892;2023-01-10T11:13:07;12.73;;;3.70;;
8450;SDS011;4262;50.980;13.892;2023-01-10T11:15:43;11.73;;;3.47;;
8450;SDS011;4262;50.980;13.892;2023-01-10T11:18:13;13.17;;;3.60;;
8450;SDS011;4262;50.980;13.892;2023-01-10T11:20:48;13.30;;;3.90;;
8450;SDS011;4262;50.980;13.892;2023-01-10T11:23:27;9.93;;;3.77;;
8450;SDS011;4262;50.980;13.892;2023-01-10T11:26:03;9.30;;;3.70;;
8450;SDS011;4262;50.980;13.892;2023-01-10T11:28:34;14.67;;;3.93;;
8450;SDS011;4262;50.980;13.892;2023-01-10T11:31:02;13.10;;;4.60;;
8450;SDS011;4262;50.980;13.892;2023-01-10T11:33:30;10.97;;;4.50;;
8450;SDS011;4262;50.980;13.892;2023-01-10T11:36:00;19.37;;;4.60;;
8450;SDS011;4262;50.980;13.892;2023-01-10T11:38:28;10.77;;;3.77;;
8450;SDS011;4262;50.980;13.892;2023-01-10T11:40:58;12.73;;;4.30;;
8450;SDS011;4262;50.980;13.892;2023-01-10T11:43:28;8.13;;;4.07;;
8450;SDS011;4262;50.980;13.892;2023-01-10T11:46:00;12.80;;;4.20;;
8450;SDS011;4262;50.980;13.892;2023-01-10T11:48:33;14.67;;;4.17;;
8450;SDS011;4262;50.980;13.892;2023-01-10T11:51:15;12.97;;;4.40;;
8450;SDS011;4262;50.980;13.892;2023-01-10T11:53:44;11.90;;;4.80;;
8450;SDS011;4262;50.980;13.892;2023-01-10T11:56:25;22.10;;;5.43;;
8450;SDS011;4262;50.980;13.892;2023-01-10T11:58:55;17.60;;;6.93;;
8450;SDS011;4262;50.980;13.892;2023-01-10T12:01:28;15.47;;;6.63;;
8450;SDS011;4262;50.980;13.892;2023-01-10T12:03:57;16.10;;;7.07;;
8450;SDS011;4262;50.980;13.892;2023-01-10T12:06:24;17.03;;;5.60;;
8450;SDS011;4262;50.980;13.892;2023-01-10T12:08:52;16.97;;;5.17;;
8450;SDS011;4262;50.980;13.892;2023-01-10T12:11:24;10.03;;;4.90;;
8450;SDS011;4262;50.980;13.892;2023-01-10T12:13:55;15.07;;;5.30;;
8450;SDS011;4262;50.980;13.892;2023-01-10T12:16:24;14.20;;;5.20;;
8450;SDS011;4262;50.980;13.892;2023-01-10T12:18:55;14.97;;;6.33;;
8450;SDS011;4262;50.980;13.892;2023-01-10T12:21:29;22.10;;;6.67;;
8450;SDS011;4262;50.980;13.892;2023-01-10T12:24:01;15.30;;;5.50;;
8450;SDS011;4262;50.980;13.892;2023-01-10T12:26:33;15.20;;;5.00;;
8450;SDS011;4262;50.980;13.892;2023-01-10T12:29:04;13.37;;;4.77;;
8450;SDS011;4262;50.980;13.892;2023-01-10T12:31:35;17.83;;;4.70;;
8450;SDS011;4262;50.980;13.892;2023-01-10T12:34:06;16.50;;;6.50;;
8450;SDS011;4262;50.980;13.892;2023-01-10T12:36:41;11.67;;;5.00;;
8450;SDS011;4262;50.980;13.892;2023-01-10T12:39:17;15.83;;;5.10;;
8450;SDS011;4262;50.980;13.892;2023-01-10T12:41:50;14.83;;;4.10;;
8450;SDS011;4262;50.980;13.892;2023-01-10T12:44:41;15.50;;;4.90;;
8450;SDS011;4262;50.980;13.892;2023-01-10T12:47:16;19.30;;;5.20;;
8450;SDS011;4262;50.980;13.892;2023-01-10T12:49:51;10.93;;;4.33;;
8450;SDS011;4262;50.980;13.892;2023-01-10T12:52:23;13.97;;;4.00;;
8450;SDS011;4262;50.980;13.892;2023-01-10T12:54:57;13.47;;;4.57;;
8450;SDS011;4262;50.980;13.892;2023-01-10T12:57:27;12.63;;;4.10;;
8450;SDS011;4262;50.980;13.892;2023-01-10T13:00:00;23.27;;;5.00;;
8450;SDS011;4262;50.980;13.892;2023-01-10T13:02:33;13.80;;;4.77;;
8450;SDS011;4262;50.980;13.892;2023-01-10T13:05:05;12.17;;;3.93;;
8450;SDS011;4262;50.980;13.892;2023-01-10T13:07:43;16.47;;;4.03;;
8450;SDS011;4262;50.980;13.892;2023-01-10T13:10:12;12.90;;;4.10;;
8450;SDS011;4262;50.980;13.892;2023-01-10T13:12:43;11.67;;;4.03;;
8450;SDS011;4262;50.980;13.892;2023-01-10T13:15:16;12.97;;;4.10;;
8450;SDS011;4262;50.980;13.892;2023-01-10T13:17:50;18.57;;;4.17;;
8450;SDS011;4262;50.980;13.892;2023-01-10T13:23:20;13.40;;;4.17;;
8450;SDS011;4262;50.980;13.892;2023-01-10T13:25:53;11.17;;;4.03;;
8450;SDS011;4262;50.980;13.892;2023-01-10T13:28:22;13.77;;;3.90;;
8450;SDS011;4262;50.980;13.892;2023-01-10T13:30:53;15.60;;;4.70;;
8450;SDS011;4262;50.980;13.892;2023-01-10T13:33:24;13.03;;;3.60;;
8450;SDS011;4262;50.980;13.892;2023-01-10T13:35:55;12.77;;;4.27;;
8450;SDS011;4262;50.980;13.892;2023-01-10T13:38:36;17.00;;;3.43;;
8450;SDS011;4262;50.980;13.892;2023-01-10T13:41:11;21.63;;;4.47;;
8450;SDS011;4262;50.980;13.892;2023-01-10T13:44:03;19.10;;;5.00;;
8450;SDS011;4262;50.980;13.892;2023-01-10T13:46:36;13.00;;;4.07;;
8450;SDS011;4262;50.980;13.892;2023-01-10T13:52:24;8.40;;;3.50;;
8450;SDS011;4262;50.980;13.892;2023-01-10T13:54:55;9.37;;;3.57;;
8450;SDS011;4262;50.980;13.892;2023-01-10T14:03:41;8.27;;;3.67;;
8450;SDS011;4262;50.980;13.892;2023-01-10T14:06:13;13.23;;;3.70;;
8450;SDS011;4262;50.980;13.892;2023-01-10T14:08:49;10.63;;;3.67;;
8450;SDS011;4262;50.980;13.892;2023-01-10T14:11:20;11.63;;;4.47;;
8450;SDS011;4262;50.980;13.892;2023-01-10T14:13:49;10.50;;;3.60;;
8450;SDS011;4262;50.980;13.892;2023-01-10T14:16:32;10.63;;;4.07;;
8450;SDS011;4262;50.980;13.892;2023-01-10T14:19:03;16.60;;;4.13;;
8450;SDS011;4262;50.980;13.892;2023-01-10T14:21:34;11.43;;;3.77;;
8450;SDS011;4262;50.980;13.892;2023-01-10T14:24:14;10.40;;;4.17;;
8450;SDS011;4262;50.980;13.892;2023-01-10T14:26:52;13.27;;;3.50;;
8450;SDS011;4262;50.980;13.892;2023-01-10T14:29:21;13.77;;;3.77;;
8450;SDS011;4262;50.980;13.892;2023-01-10T14:31:49;11.70;;;4.10;;
8450;SDS011;4262;50.980;13.892;2023-01-10T14:34:20;12.70;;;3.80;;
8450;SDS011;4262;50.980;13.892;2023-01-10T14:36:49;11.83;;;3.20;;
8450;SDS011;4262;50.980;13.892;2023-01-10T14:39:24;11.53;;;3.50;;
8450;SDS011;4262;50.980;13.892;2023-01-10T14:41:53;9.87;;;3.83;;
8450;SDS011;4262;50.980;13.892;2023-01-10T14:44:25;10.70;;;4.27;;
8450;SDS011;4262;50.980;13.892;2023-01-10T14:46:56;17.80;;;4.30;;
8450;SDS011;4262;50.980;13.892;2023-01-10T14:49:29;13.73;;;3.27;;
8450;SDS011;4262;50.980;13.892;2023-01-10T14:52:10;12.50;;;3.80;;
8450;SDS011;4262;50.980;13.892;2023-01-10T14:54:39;10.97;;;3.23;;
8450;SDS011;4262;50.980;13.892;2023-01-10T14:57:14;10.60;;;3.47;;
8450;SDS011;4262;50.980;13.892;2023-01-10T14:59:44;10.83;;;3.33;;
8450;SDS011;4262;50.980;13.892;2023-01-10T15:02:13;8.67;;;3.30;;
8450;SDS011;4262;50.980;13.892;2023-01-10T15:04:47;11.70;;;3.00;;
8450;SDS011;4262;50.980;13.892;2023-01-10T15:07:17;12.43;;;3.50;;
8450;SDS011;4262;50.980;13.892;2023-01-10T15:09:48;10.77;;;4.10;;
8450;SDS011;4262;50.980;13.892;2023-01-10T15:12:16;10.60;;;3.50;;
8450;SDS011;4262;50.980;13.892;2023-01-10T15:14:45;15.00;;;3.93;;
8450;SDS011;4262;50.980;13.892;2023-01-10T15:17:15;13.10;;;4.00;;
8450;SDS011;4262;50.980;13.892;2023-01-10T15:19:46;10.87;;;3.43;;
8450;SDS011;4262;50.980;13.892;2023-01-10T15:22:16;12.73;;;3.93;;
8450;SDS011;4262;50.980;13.892;2023-01-10T15:24:57;10.07;;;4.37;;
8450;SDS011;4262;50.980;13.892;2023-01-10T15:27:26;10.67;;;4.13;;
8450;SDS011;4262;50.980;13.892;2023-01-10T15:29:53;15.13;;;4.00;;
8450;SDS011;4262;50.980;13.892;2023-01-10T15:32:22;9.47;;;3.60;;
8450;SDS011;4262;50.980;13.892;2023-01-10T15:34:53;9.93;;;3.60;;
8450;SDS011;4262;50.980;13.892;2023-01-10T15:37:23;10.63;;;3.87;;
8450;SDS011;4262;50.980;13.892;2023-01-10T15:39:52;7.50;;;3.17;;
8450;SDS011;4262;50.980;13.892;2023-01-10T15:42:21;12.10;;;3.33;;
8450;SDS011;4262;50.980;13.892;2023-01-10T15:44:48;12.17;;;3.80;;
8450;SDS011;4262;50.980;13.892;2023-01-10T15:47:33;11.73;;;3.67;;
8450;SDS011;4262;50.980;13.892;2023-01-10T15:50:02;8.20;;;3.43;;
8450;SDS011;4262;50.980;13.892;2023-01-10T15:52:46;10.20;;;3.83;;
8450;SDS011;4262;50.980;13.892;2023-01-10T15:58:10;14.47;;;4.17;;
8450;SDS011;4262;50.980;13.892;2023-01-10T16:00:42;8.17;;;3.30;;
8450;SDS011;4262;50.980;13.892;2023-01-10T16:03:13;11.30;;;4.47;;
8450;SDS011;4262;50.980;13.892;2023-01-10T16:05:48;16.13;;;5.90;;
8450;SDS011;4262;50.980;13.892;2023-01-10T16:08:22;10.60;;;3.67;;
8450;SDS011;4262;50.980;13.892;2023-01-10T16:10:52;11.03;;;4.83;;
8450;SDS011;4262;50.980;13.892;2023-01-10T16:13:22;8.73;;;3.60;;
8450;SDS011;4262;50.980;13.892;2023-01-10T16:15:51;10.67;;;3.73;;
8450;SDS011;4262;50.980;13.892;2023-01-10T16:18:20;13.10;;;4.63;;
8450;SDS011;4262;50.980;13.892;2023-01-10T16:20:47;10.90;;;4.63;;
8450;SDS011;4262;50.980;13.892;2023-01-10T16:23:16;15.00;;;3.83;;
8450;SDS011;4262;50.980;13.892;2023-01-10T16:25:48;13.07;;;4.60;;
8450;SDS011;4262;50.980;13.892;2023-01-10T16:28:18;9.43;;;4.60;;
8450;SDS011;4262;50.980;13.892;2023-01-10T16:30:48;14.17;;;4.23;;
8450;SDS011;4262;50.980;13.892;2023-01-10T16:33:15;12.30;;;5.57;;
8450;SDS011;4262;50.980;13.892;2023-01-10T16:35:43;14.23;;;5.17;;
8450;SDS011;4262;50.980;13.892;2023-01-10T16:38:13;15.33;;;5.50;;
8450;SDS011;4262;50.980;13.892;2023-01-10T16:40:45;12.40;;;4.67;;
8450;SDS011;4262;50.980;13.892;2023-01-10T16:43:14;14.50;;;5.43;;
8450;SDS011;4262;50.980;13.892;2023-01-10T16:45:43;14.00;;;5.80;;
8450;SDS011;4262;50.980;13.892;2023-01-10T16:48:30;13.17;;;6.00;;
8450;SDS011;4262;50.980;13.892;2023-01-10T16:51:03;16.50;;;6.37;;
8450;SDS011;4262;50.980;13.892;2023-01-10T16:53:30;17.60;;;5.30;;
8450;SDS011;4262;50.980;13.892;2023-01-10T16:55:57;14.10;;;6.60;;
8450;SDS011;4262;50.980;13.892;2023-01-10T16:58:26;14.53;;;6.03;;
8450;SDS011;4262;50.980;13.892;2023-01-10T17:00:52;15.63;;;6.33;;
8450;SDS011;4262;50.980;13.892;2023-01-10T17:03:20;13.23;;;7.03;;
8450;SDS011;4262;50.980;13.892;2023-01-10T17:05:50;16.60;;;6.87;;
8450;SDS011;4262;50.980;13.892;2023-01-10T17:08:19;18.13;;;6.70;;
8450;SDS011;4262;50.980;13.892;2023-01-10T17:10:48;15.83;;;6.90;;
8450;SDS011;4262;50.980;13.892;2023-01-10T17:13:20;16.93;;;6.40;;
8450;SDS011;4262;50.980;13.892;2023-01-10T17:15:49;16.93;;;7.03;;
8450;SDS011;4262;50.980;13.892;2023-01-10T17:18:16;18.33;;;7.70;;
8450;SDS011;4262;50.980;13.892;2023-01-10T17:20:42;13.47;;;5.90;;
8450;SDS011;4262;50.980;13.892;2023-01-10T17:23:11;22.27;;;7.77;;
8450;SDS011;4262;50.980;13.892;2023-01-10T17:25:40;15.63;;;5.30;;
8450;SDS011;4262;50.980;13.892;2023-01-10T17:28:07;15.57;;;7.47;;
8450;SDS011;4262;50.980;13.892;2023-01-10T17:30:37;20.00;;;10.23;;
8450;SDS011;4262;50.980;13.892;2023-01-10T17:33:04;13.93;;;6.93;;
8450;SDS011;4262;50.980;13.892;2023-01-10T17:35:37;20.90;;;9.67;;
8450;SDS011;4262;50.980;13.892;2023-01-10T17:38:04;19.53;;;9.13;;
8450;SDS011;4262;50.980;13.892;2023-01-10T17:43:04;15.47;;;7.33;;
8450;SDS011;4262;50.980;13.892;2023-01-10T17:45:31;14.43;;;5.20;;
8450;SDS011;4262;50.980;13.892;2023-01-10T17:47:58;13.07;;;7.17;;
8450;SDS011;4262;50.980;13.892;2023-01-10T17:50:25;18.07;;;7.10;;
8450;SDS011;4262;50.980;13.892;2023-01-10T17:52:51;18.20;;;5.37;;
8450;SDS011;4262;50.980;13.892;2023-01-10T17:55:18;14.90;;;6.30;;
8450;SDS011;4262;50.980;13.892;2023-01-10T17:57:46;16.10;;;6.77;;
8450;SDS011;4262;50.980;13.892;2023-01-10T18:00:13;12.37;;;7.07;;
8450;SDS011;4262;50.980;13.892;2023-01-10T18:02:40;12.83;;;6.70;;
8450;SDS011;4262;50.980;13.892;2023-01-10T18:05:07;15.20;;;6.70;;
8450;SDS011;4262;50.980;13.892;2023-01-10T18:07:34;15.87;;;7.83;;
8450;SDS011;4262;50.980;13.892;2023-01-10T18:10:02;14.97;;;8.97;;
8450;SDS011;4262;50.980;13.892;2023-01-10T18:12:31;20.00;;;9.00;;
8450;SDS011;4262;50.980;13.892;2023-01-10T18:14:59;22.17;;;8.83;;
8450;SDS011;4262;50.980;13.892;2023-01-10T18:17:26;23.43;;;9.10;;
8450;SDS011;4262;50.980;13.892;2023-01-10T18:19:54;18.83;;;8.80;;
8450;SDS011;4262;50.980;13.892;2023-01-10T18:22:21;15.23;;;8.13;;
8450;SDS011;4262;50.980;13.892;2023-01-10T18:25:07;17.77;;;7.60;;
8450;SDS011;4262;50.980;13.892;2023-01-10T18:27:34;17.63;;;8.00;;
8450;SDS011;4262;50.980;13.892;2023-01-10T18:30:04;15.10;;;6.10;;
8450;SDS011;4262;50.980;13.892;2023-01-10T18:32:32;11.70;;;5.60;;
8450;SDS011;4262;50.980;13.892;2023-01-10T18:34:59;13.77;;;6.90;;
8450;SDS011;4262;50.980;13.892;2023-01-10T18:37:25;18.80;;;7.83;;
8450;SDS011;4262;50.980;13.892;2023-01-10T18:39:54;11.77;;;7.00;;
8450;SDS011;4262;50.980;13.892;2023-01-10T18:42:21;13.70;;;7.30;;
8450;SDS011;4262;50.980;13.892;2023-01-10T18:44:47;15.10;;;6.47;;
8450;SDS011;4262;50.980;13.892;2023-01-10T18:47:15;12.43;;;6.63;;
8450;SDS011;4262;50.980;13.892;2023-01-10T18:49:42;16.00;;;8.30;;
8450;SDS011;4262;50.980;13.892;2023-01-10T18:52:09;13.93;;;7.07;;
8450;SDS011;4262;50.980;13.892;2023-01-10T18:54:36;17.70;;;7.40;;
8450;SDS011;4262;50.980;13.892;2023-01-10T18:57:02;15.50;;;8.07;;
8450;SDS011;4262;50.980;13.892;2023-01-10T18:59:29;16.57;;;7.17;;
8450;SDS011;4262;50.980;13.892;2023-01-10T19:01:56;16.07;;;7.00;;
8450;SDS011;4262;50.980;13.892;2023-01-10T19:04:24;13.47;;;7.20;;
8450;SDS011;4262;50.980;13.892;2023-01-10T19:06:51;12.03;;;6.67;;
8450;SDS011;4262;50.980;13.892;2023-01-10T19:09:17;14.83;;;8.57;;
8450;SDS011;4262;50.980;13.892;2023-01-10T19:11:44;13.80;;;6.87;;
8450;SDS011;4262;50.980;13.892;2023-01-10T19:14:11;15.47;;;7.57;;
8450;SDS011;4262;50.980;13.892;2023-01-10T19:16:37;11.40;;;5.43;;
8450;SDS011;4262;50.980;13.892;2023-01-10T19:19:05;13.30;;;5.80;;
8450;SDS011;4262;50.980;13.892;2023-01-10T19:21:35;11.27;;;4.60;;
8450;SDS011;4262;50.980;13.892;2023-01-10T19:24:04;10.10;;;5.03;;
8450;SDS011;4262;50.980;13.892;2023-01-10T19:26:33;11.90;;;4.50;;
8450;SDS011;4262;50.980;13.892;2023-01-10T19:29:02;7.90;;;4.20;;
8450;SDS011;4262;50.980;13.892;2023-01-10T19:31:29;9.00;;;4.20;;
8450;SDS011;4262;50.980;13.892;2023-01-10T19:33:57;9.00;;;3.83;;
8450;SDS011;4262;50.980;13.892;2023-01-10T19:36:24;13.43;;;4.27;;
8450;SDS011;4262;50.980;13.892;2023-01-10T19:38:53;10.60;;;5.13;;
8450;SDS011;4262;50.980;13.892;2023-01-10T19:41:21;9.20;;;4.87;;
8450;SDS011;4262;50.980;13.892;2023-01-10T19:43:47;13.00;;;5.10;;
8450;SDS011;4262;50.980;13.892;2023-01-10T19:46:21;10.87;;;4.90;;
8450;SDS011;4262;50.980;13.892;2023-01-10T19:48:47;15.37;;;4.77;;
8450;SDS011;4262;50.980;13.892;2023-01-10T19:51:14;10.57;;;4.17;;
8450;SDS011;4262;50.980;13.892;2023-01-10T19:53:42;11.83;;;4.47;;